sensor_id;sensor_type;location;lat;lon;timestamp;P1;durP1;ratioP1;P2;durP2;ratioP2
21444;SDS011;10883;51.946;20.140;2023-06-04T00:01:36;19.77;;;11.27;;
21444;SDS011;10883;51.946;20.140;2023-06-04T00:04:01;20.55;;;10.68;;
21444;SDS011;10883;51.946;20.140;2023-06-04T00:06:27;19.10;;;9.48;;
21444;SDS011;10883;51.946;20.140;2023-06-04T00:08:53;15.88;;;8.27;;
21444;SDS011;10883;51.946;20.140;2023-06-04T00:11:18;22.25;;;9.88;;
21444;SDS011;10883;51.946;20.140;2023-06-04T00:13:45;19.90;;;10.98;;
21444;SDS011;10883;51.946;20.140;2023-06-04T00:16:10;19.05;;;9.52;;
21444;SDS011;10883;51.946;20.140;2023-06-04T00:18:36;20.67;;;9.10;;
21444;SDS011;10883;51.946;20.140;2023-06-04T00:21:02;17.33;;;9.20;;
21444;SDS011;10883;51.946;20.140;2023-06-04T00:23:28;18.00;;;9.38;;
21444;SDS011;10883;51.946;20.140;2023-06-04T00:25:54;18.48;;;10.18;;
21444;SDS011;10883;51.946;20.140;2023-06-04T00:28:19;19.75;;;10.85;;
21444;SDS011;10883;51.946;20.140;2023-06-04T00:30:46;18.27;;;9.63;;
21444;SDS011;10883;51.946;20.140;2023-06-04T00:33:12;20.42;;;9.23;;
21444;SDS011;10883;51.946;20.140;2023-06-04T00:35:38;17.98;;;8.98;;
21444;SDS011;10883;51.946;20.140;2023-06-04T00:38:03;16.90;;;9.38;;
21444;SDS011;10883;51.946;20.140;2023-06-04T00:40:29;18.80;;;9.40;;
21444;SDS011;10883;51.946;20.140;2023-06-04T00:42:55;20.27;;;9.43;;
21444;SDS011;10883;51.946;20.140;2023-06-04T00:45:21;21.40;;;10.13;;
21444;SDS011;10883;51.946;20.140;2023-06-04T00:47:50;16.27;;;8.95;;
21444;SDS011;10883;51.946;20.140;2023-06-04T00:50:16;21.85;;;10.38;;
21444;SDS011;10883;51.946;20.140;2023-06-04T00:52:43;20.70;;;9.55;;
21444;SDS011;10883;51.946;20.140;2023-06-04T00:55:09;18.05;;;8.57;;
21444;SDS011;10883;51.946;20.140;2023-06-04T00:57:35;15.43;;;8.40;;
21444;SDS011;10883;51.946;20.140;2023-06-04T01:00:02;21.17;;;9.48;;
21444;SDS011;10883;51.946;20.140;2023-06-04T01:02:30;18.35;;;9.18;;
21444;SDS011;10883;51.946;20.140;2023-06-04T01:07:33;20.35;;;10.43;;
21444;SDS011;10883;51.946;20.140;2023-06-04T01:10:01;19.17;;;9.98;;
21444;SDS011;10883;51.946;20.140;2023-06-04T01:12:27;18.35;;;9.25;;
21444;SDS011;10883;51.946;20.140;2023-06-04T01:14:53;19.27;;;9.27;;
21444;SDS011;10883;51.946;20.140;2023-06-04T01:17:20;15.45;;;8.75;;
21444;SDS011;10883;51.946;20.140;2023-06-04T01:25:39;14.38;;;7.50;;
21444;SDS011;10883;51.946;20.140;2023-06-04T01:28:11;17.00;;;8.57;;
21444;SDS011;10883;51.946;20.140;2023-06-04T01:30:39;19.67;;;9.57;;
21444;SDS011;10883;51.946;20.140;2023-06-04T01:33:09;15.17;;;8.17;;
21444;SDS011;10883;51.946;20.140;2023-06-04T01:35:36;16.52;;;8.32;;
21444;SDS011;10883;51.946;20.140;2023-06-04T01:38:02;17.25;;;8.27;;
21444;SDS011;10883;51.946;20.140;2023-06-04T01:40:28;14.30;;;7.93;;
21444;SDS011;10883;51.946;20.140;2023-06-04T01:42:53;13.95;;;7.57;;
21444;SDS011;10883;51.946;20.140;2023-06-04T01:45:23;16.77;;;8.10;;
21444;SDS011;10883;51.946;20.140;2023-06-04T01:47:49;16.75;;;7.60;;
21444;SDS011;10883;51.946;20.140;2023-06-04T01:50:15;15.13;;;7.13;;
21444;SDS011;10883;51.946;20.140;2023-06-04T01:52:42;16.83;;;8.30;;
21444;SDS011;10883;51.946;20.140;2023-06-04T01:55:09;19.20;;;7.70;;
21444;SDS011;10883;51.946;20.140;2023-06-04T01:57:37;16.20;;;8.27;;
21444;SDS011;10883;51.946;20.140;2023-06-04T02:00:06;17.38;;;8.52;;
21444;SDS011;10883;51.946;20.140;2023-06-04T02:02:34;16.75;;;7.95;;
21444;SDS011;10883;51.946;20.140;2023-06-04T02:05:02;15.18;;;8.07;;
21444;SDS011;10883;51.946;20.140;2023-06-04T02:07:34;17.98;;;7.10;;
21444;SDS011;10883;51.946;20.140;2023-06-04T02:12:36;15.48;;;7.20;;
21444;SDS011;10883;51.946;20.140;2023-06-04T02:15:03;16.43;;;7.30;;
21444;SDS011;10883;51.946;20.140;2023-06-04T02:17:30;13.15;;;7.20;;
21444;SDS011;10883;51.946;20.140;2023-06-04T02:19:57;15.70;;;7.93;;
21444;SDS011;10883;51.946;20.140;2023-06-04T02:22:24;14.17;;;6.63;;
21444;SDS011;10883;51.946;20.140;2023-06-04T02:24:51;11.60;;;6.17;;
21444;SDS011;10883;51.946;20.140;2023-06-04T02:27:17;16.70;;;7.00;;
21444;SDS011;10883;51.946;20.140;2023-06-04T02:29:43;14.57;;;6.60;;
21444;SDS011;10883;51.946;20.140;2023-06-04T02:32:09;13.38;;;6.40;;
21444;SDS011;10883;51.946;20.140;2023-06-04T02:34:35;17.63;;;7.57;;
21444;SDS011;10883;51.946;20.140;2023-06-04T02:37:01;17.27;;;7.88;;
21444;SDS011;10883;51.946;20.140;2023-06-04T02:39:28;15.80;;;7.18;;
21444;SDS011;10883;51.946;20.140;2023-06-04T02:41:54;18.33;;;6.43;;
21444;SDS011;10883;51.946;20.140;2023-06-04T02:44:20;16.58;;;7.60;;
21444;SDS011;10883;51.946;20.140;2023-06-04T02:46:46;18.27;;;7.30;;
21444;SDS011;10883;51.946;20.140;2023-06-04T02:49:11;16.88;;;7.32;;
21444;SDS011;10883;51.946;20.140;2023-06-04T02:51:39;21.20;;;7.83;;
21444;SDS011;10883;51.946;20.140;2023-06-04T02:54:05;17.35;;;7.65;;
21444;SDS011;10883;51.946;20.140;2023-06-04T02:56:31;19.67;;;8.38;;
21444;SDS011;10883;51.946;20.140;2023-06-04T02:58:57;17.08;;;7.53;;
21444;SDS011;10883;51.946;20.140;2023-06-04T03:01:23;11.88;;;6.10;;
21444;SDS011;10883;51.946;20.140;2023-06-04T03:03:50;18.40;;;7.38;;
21444;SDS011;10883;51.946;20.140;2023-06-04T03:06:16;14.57;;;7.15;;
21444;SDS011;10883;51.946;20.140;2023-06-04T03:08:45;15.47;;;7.47;;
21444;SDS011;10883;51.946;20.140;2023-06-04T03:11:15;15.18;;;7.47;;
21444;SDS011;10883;51.946;20.140;2023-06-04T03:13:41;10.32;;;6.43;;
21444;SDS011;10883;51.946;20.140;2023-06-04T03:16:07;19.60;;;8.65;;
21444;SDS011;10883;51.946;20.140;2023-06-04T03:18:36;24.15;;;7.93;;
21444;SDS011;10883;51.946;20.140;2023-06-04T03:21:03;14.07;;;6.93;;
21444;SDS011;10883;51.946;20.140;2023-06-04T03:23:30;16.83;;;7.47;;
21444;SDS011;10883;51.946;20.140;2023-06-04T03:25:56;16.65;;;7.82;;
21444;SDS011;10883;51.946;20.140;2023-06-04T03:28:22;17.75;;;7.75;;
21444;SDS011;10883;51.946;20.140;2023-06-04T03:30:48;13.35;;;7.85;;
21444;SDS011;10883;51.946;20.140;2023-06-04T03:33:13;14.73;;;8.25;;
21444;SDS011;10883;51.946;20.140;2023-06-04T03:35:42;16.20;;;7.88;;
21444;SDS011;10883;51.946;20.140;2023-06-04T03:38:08;16.75;;;7.65;;
21444;SDS011;10883;51.946;20.140;2023-06-04T03:40:34;15.55;;;7.47;;
21444;SDS011;10883;51.946;20.140;2023-06-04T03:43:00;12.82;;;7.43;;
21444;SDS011;10883;51.946;20.140;2023-06-04T03:45:26;13.25;;;6.68;;
21444;SDS011;10883;51.946;20.140;2023-06-04T03:47:52;15.02;;;7.05;;
21444;SDS011;10883;51.946;20.140;2023-06-04T03:50:18;10.20;;;6.63;;
21444;SDS011;10883;51.946;20.140;2023-06-04T03:52:44;12.88;;;6.60;;
21444;SDS011;10883;51.946;20.140;2023-06-04T03:55:09;14.30;;;6.78;;
21444;SDS011;10883;51.946;20.140;2023-06-04T03:57:36;9.82;;;6.28;;
21444;SDS011;10883;51.946;20.140;2023-06-04T04:00:04;12.77;;;6.22;;
21444;SDS011;10883;51.946;20.140;2023-06-04T04:02:31;11.52;;;6.05;;
21444;SDS011;10883;51.946;20.140;2023-06-04T04:04:57;9.40;;;5.05;;
21444;SDS011;10883;51.946;20.140;2023-06-04T04:07:23;8.00;;;4.75;;
21444;SDS011;10883;51.946;20.140;2023-06-04T04:09:49;7.97;;;4.70;;
21444;SDS011;10883;51.946;20.140;2023-06-04T04:12:16;10.32;;;4.63;;
21444;SDS011;10883;51.946;20.140;2023-06-04T04:14:42;9.50;;;4.47;;
21444;SDS011;10883;51.946;20.140;2023-06-04T04:17:08;7.30;;;4.07;;
21444;SDS011;10883;51.946;20.140;2023-06-04T04:19:33;10.50;;;3.95;;
21444;SDS011;10883;51.946;20.140;2023-06-04T04:21:59;7.75;;;3.78;;
21444;SDS011;10883;51.946;20.140;2023-06-04T04:24:26;5.97;;;3.90;;
21444;SDS011;10883;51.946;20.140;2023-06-04T04:26:52;6.35;;;3.78;;
21444;SDS011;10883;51.946;20.140;2023-06-04T04:29:22;8.10;;;3.78;;
21444;SDS011;10883;51.946;20.140;2023-06-04T04:31:50;8.52;;;3.90;;
21444;SDS011;10883;51.946;20.140;2023-06-04T04:34:16;9.43;;;4.13;;
21444;SDS011;10883;51.946;20.140;2023-06-04T04:36:45;5.93;;;3.83;;
21444;SDS011;10883;51.946;20.140;2023-06-04T04:39:17;12.68;;;4.18;;
21444;SDS011;10883;51.946;20.140;2023-06-04T04:41:44;11.35;;;4.47;;
21444;SDS011;10883;51.946;20.140;2023-06-04T04:44:10;8.68;;;4.20;;
21444;SDS011;10883;51.946;20.140;2023-06-04T04:46:35;7.43;;;4.05;;
21444;SDS011;10883;51.946;20.140;2023-06-04T04:49:01;6.72;;;3.75;;
21444;SDS011;10883;51.946;20.140;2023-06-04T04:51:27;7.30;;;3.67;;
21444;SDS011;10883;51.946;20.140;2023-06-04T04:53:53;8.63;;;3.75;;
21444;SDS011;10883;51.946;20.140;2023-06-04T04:56:19;11.52;;;3.78;;
21444;SDS011;10883;51.946;20.140;2023-06-04T04:58:47;8.20;;;3.88;;
21444;SDS011;10883;51.946;20.140;2023-06-04T05:01:14;7.38;;;3.70;;
21444;SDS011;10883;51.946;20.140;2023-06-04T05:03:39;10.10;;;4.35;;
21444;SDS011;10883;51.946;20.140;2023-06-04T05:06:05;6.93;;;3.80;;
21444;SDS011;10883;51.946;20.140;2023-06-04T05:08:31;6.65;;;3.28;;
21444;SDS011;10883;51.946;20.140;2023-06-04T05:10:57;7.75;;;2.95;;
21444;SDS011;10883;51.946;20.140;2023-06-04T05:13:22;5.85;;;2.95;;
21444;SDS011;10883;51.946;20.140;2023-06-04T05:15:49;5.57;;;2.72;;
21444;SDS011;10883;51.946;20.140;2023-06-04T05:18:17;8.60;;;2.97;;
21444;SDS011;10883;51.946;20.140;2023-06-04T05:20:45;9.02;;;3.08;;
21444;SDS011;10883;51.946;20.140;2023-06-04T05:23:11;4.60;;;2.40;;
21444;SDS011;10883;51.946;20.140;2023-06-04T05:25:38;4.05;;;2.30;;
21444;SDS011;10883;51.946;20.140;2023-06-04T05:28:04;8.45;;;2.30;;
21444;SDS011;10883;51.946;20.140;2023-06-04T05:30:32;6.18;;;2.42;;
21444;SDS011;10883;51.946;20.140;2023-06-04T05:33:01;3.83;;;1.80;;
21444;SDS011;10883;51.946;20.140;2023-06-04T05:35:26;3.88;;;1.63;;
21444;SDS011;10883;51.946;20.140;2023-06-04T05:37:52;7.85;;;2.53;;
21444;SDS011;10883;51.946;20.140;2023-06-04T05:40:18;3.92;;;2.15;;
21444;SDS011;10883;51.946;20.140;2023-06-04T05:42:46;5.43;;;2.22;;
21444;SDS011;10883;51.946;20.140;2023-06-04T05:45:12;4.72;;;2.10;;
21444;SDS011;10883;51.946;20.140;2023-06-04T05:47:38;4.22;;;1.90;;
21444;SDS011;10883;51.946;20.140;2023-06-04T05:50:04;2.40;;;1.70;;
21444;SDS011;10883;51.946;20.140;2023-06-04T05:52:31;4.10;;;2.03;;
21444;SDS011;10883;51.946;20.140;2023-06-04T05:54:58;2.60;;;1.33;;
21444;SDS011;10883;51.946;20.140;2023-06-04T05:57:24;2.55;;;1.45;;
21444;SDS011;10883;51.946;20.140;2023-06-04T05:59:50;2.75;;;1.30;;
21444;SDS011;10883;51.946;20.140;2023-06-04T06:02:15;4.28;;;1.65;;
21444;SDS011;10883;51.946;20.140;2023-06-04T06:04:41;1.98;;;1.30;;
21444;SDS011;10883;51.946;20.140;2023-06-04T06:07:07;6.60;;;2.00;;
21444;SDS011;10883;51.946;20.140;2023-06-04T06:09:33;3.15;;;1.75;;
21444;SDS011;10883;51.946;20.140;2023-06-04T06:12:00;3.60;;;1.20;;
21444;SDS011;10883;51.946;20.140;2023-06-04T06:14:26;2.00;;;1.30;;
21444;SDS011;10883;51.946;20.140;2023-06-04T06:16:52;3.15;;;1.33;;
21444;SDS011;10883;51.946;20.140;2023-06-04T06:19:18;4.78;;;1.25;;
21444;SDS011;10883;51.946;20.140;2023-06-04T06:21:44;2.80;;;1.23;;
21444;SDS011;10883;51.946;20.140;2023-06-04T06:24:10;1.90;;;1.00;;
21444;SDS011;10883;51.946;20.140;2023-06-04T06:26:36;2.58;;;1.17;;
21444;SDS011;10883;51.946;20.140;2023-06-04T06:29:02;2.75;;;1.30;;
21444;SDS011;10883;51.946;20.140;2023-06-04T06:31:28;4.43;;;1.30;;
21444;SDS011;10883;51.946;20.140;2023-06-04T06:33:53;3.47;;;1.40;;
21444;SDS011;10883;51.946;20.140;2023-06-04T06:36:19;3.28;;;1.20;;
21444;SDS011;10883;51.946;20.140;2023-06-04T06:38:45;1.58;;;1.02;;
21444;SDS011;10883;51.946;20.140;2023-06-04T06:41:11;2.95;;;1.45;;
21444;SDS011;10883;51.946;20.140;2023-06-04T06:43:38;2.50;;;1.17;;
21444;SDS011;10883;51.946;20.140;2023-06-04T06:46:04;2.53;;;1.20;;
21444;SDS011;10883;51.946;20.140;2023-06-04T06:48:29;4.72;;;1.30;;
21444;SDS011;10883;51.946;20.140;2023-06-04T06:50:55;6.43;;;1.27;;
21444;SDS011;10883;51.946;20.140;2023-06-04T06:53:21;7.82;;;1.35;;
21444;SDS011;10883;51.946;20.140;2023-06-04T06:55:47;3.30;;;1.30;;
21444;SDS011;10883;51.946;20.140;2023-06-04T06:58:13;0.98;;;0.90;;
21444;SDS011;10883;51.946;20.140;2023-06-04T07:00:38;2.65;;;1.10;;
21444;SDS011;10883;51.946;20.140;2023-06-04T07:03:04;1.67;;;0.82;;
21444;SDS011;10883;51.946;20.140;2023-06-04T07:05:30;1.85;;;1.20;;
21444;SDS011;10883;51.946;20.140;2023-06-04T07:07:56;2.15;;;1.30;;
21444;SDS011;10883;51.946;20.140;2023-06-04T07:10:23;2.55;;;0.98;;
21444;SDS011;10883;51.946;20.140;2023-06-04T07:12:49;2.63;;;1.08;;
21444;SDS011;10883;51.946;20.140;2023-06-04T07:15:15;1.20;;;0.80;;
21444;SDS011;10883;51.946;20.140;2023-06-04T07:17:41;1.40;;;1.08;;
21444;SDS011;10883;51.946;20.140;2023-06-04T07:20:07;2.90;;;1.00;;
21444;SDS011;10883;51.946;20.140;2023-06-04T07:22:34;3.28;;;0.80;;
21444;SDS011;10883;51.946;20.140;2023-06-04T07:25:00;3.13;;;1.02;;
21444;SDS011;10883;51.946;20.140;2023-06-04T07:27:26;2.75;;;0.80;;
21444;SDS011;10883;51.946;20.140;2023-06-04T07:29:53;2.00;;;1.00;;
21444;SDS011;10883;51.946;20.140;2023-06-04T07:32:18;1.70;;;0.77;;
21444;SDS011;10883;51.946;20.140;2023-06-04T07:34:44;1.27;;;0.85;;
21444;SDS011;10883;51.946;20.140;2023-06-04T07:37:10;4.90;;;1.15;;
21444;SDS011;10883;51.946;20.140;2023-06-04T07:39:38;1.50;;;0.90;;
21444;SDS011;10883;51.946;20.140;2023-06-04T07:42:05;1.90;;;0.88;;
21444;SDS011;10883;51.946;20.140;2023-06-04T07:44:32;2.97;;;0.90;;
21444;SDS011;10883;51.946;20.140;2023-06-04T07:46:58;2.17;;;0.90;;
21444;SDS011;10883;51.946;20.140;2023-06-04T07:49:24;1.65;;;0.82;;
21444;SDS011;10883;51.946;20.140;2023-06-04T07:51:49;1.88;;;0.70;;
21444;SDS011;10883;51.946;20.140;2023-06-04T07:54:16;0.90;;;0.68;;
21444;SDS011;10883;51.946;20.140;2023-06-04T07:56:41;3.33;;;1.25;;
21444;SDS011;10883;51.946;20.140;2023-06-04T07:59:07;1.23;;;0.80;;
21444;SDS011;10883;51.946;20.140;2023-06-04T08:01:33;3.70;;;0.85;;
21444;SDS011;10883;51.946;20.140;2023-06-04T08:03:59;1.20;;;0.80;;
21444;SDS011;10883;51.946;20.140;2023-06-04T08:06:25;2.78;;;0.90;;
21444;SDS011;10883;51.946;20.140;2023-06-04T08:08:51;2.40;;;0.95;;
21444;SDS011;10883;51.946;20.140;2023-06-04T08:11:17;2.30;;;0.68;;
21444;SDS011;10883;51.946;20.140;2023-06-04T08:13:43;0.98;;;0.70;;
21444;SDS011;10883;51.946;20.140;2023-06-04T08:16:10;3.10;;;0.65;;
21444;SDS011;10883;51.946;20.140;2023-06-04T08:18:40;0.82;;;0.60;;
21444;SDS011;10883;51.946;20.140;2023-06-04T08:21:08;3.80;;;1.00;;
21444;SDS011;10883;51.946;20.140;2023-06-04T08:23:36;1.05;;;0.75;;
21444;SDS011;10883;51.946;20.140;2023-06-04T08:26:01;2.03;;;0.75;;
21444;SDS011;10883;51.946;20.140;2023-06-04T08:28:27;2.40;;;0.65;;
21444;SDS011;10883;51.946;20.140;2023-06-04T08:30:53;2.80;;;0.82;;
21444;SDS011;10883;51.946;20.140;2023-06-04T08:33:19;1.33;;;0.88;;
21444;SDS011;10883;51.946;20.140;2023-06-04T08:35:45;2.40;;;1.00;;
21444;SDS011;10883;51.946;20.140;2023-06-04T08:38:11;1.02;;;0.50;;
21444;SDS011;10883;51.946;20.140;2023-06-04T08:40:37;0.55;;;0.50;;
21444;SDS011;10883;51.946;20.140;2023-06-04T08:43:03;1.23;;;0.60;;
21444;SDS011;10883;51.946;20.140;2023-06-04T08:45:30;1.33;;;0.50;;
21444;SDS011;10883;51.946;20.140;2023-06-04T08:47:58;1.73;;;0.80;;
21444;SDS011;10883;51.946;20.140;2023-06-04T08:50:25;1.25;;;0.95;;
21444;SDS011;10883;51.946;20.140;2023-06-04T08:52:52;1.00;;;0.70;;
21444;SDS011;10883;51.946;20.140;2023-06-04T08:55:19;3.00;;;0.75;;
21444;SDS011;10883;51.946;20.140;2023-06-04T08:57:47;6.65;;;1.00;;
21444;SDS011;10883;51.946;20.140;2023-06-04T09:00:16;0.82;;;0.60;;
21444;SDS011;10883;51.946;20.140;2023-06-04T09:02:43;1.35;;;0.70;;
21444;SDS011;10883;51.946;20.140;2023-06-04T09:05:11;2.85;;;0.55;;
21444;SDS011;10883;51.946;20.140;2023-06-04T09:07:53;2.25;;;1.20;;
21444;SDS011;10883;51.946;20.140;2023-06-04T09:10:22;1.27;;;0.68;;
21444;SDS011;10883;51.946;20.140;2023-06-04T09:12:56;3.47;;;1.13;;
21444;SDS011;10883;51.946;20.140;2023-06-04T09:15:26;1.67;;;0.60;;
21444;SDS011;10883;51.946;20.140;2023-06-04T09:17:56;0.52;;;0.40;;
21444;SDS011;10883;51.946;20.140;2023-06-04T09:20:23;2.83;;;0.80;;
21444;SDS011;10883;51.946;20.140;2023-06-04T09:22:51;1.38;;;0.60;;
21444;SDS011;10883;51.946;20.140;2023-06-04T09:25:23;0.82;;;0.70;;
21444;SDS011;10883;51.946;20.140;2023-06-04T09:27:50;1.85;;;1.02;;
21444;SDS011;10883;51.946;20.140;2023-06-04T09:30:17;2.83;;;0.73;;
21444;SDS011;10883;51.946;20.140;2023-06-04T09:32:44;2.90;;;0.70;;
21444;SDS011;10883;51.946;20.140;2023-06-04T09:35:14;5.45;;;1.25;;
21444;SDS011;10883;51.946;20.140;2023-06-04T09:37:42;5.85;;;0.90;;
21444;SDS011;10883;51.946;20.140;2023-06-04T09:40:21;1.83;;;0.80;;
21444;SDS011;10883;51.946;20.140;2023-06-04T09:42:48;0.60;;;0.50;;
21444;SDS011;10883;51.946;20.140;2023-06-04T09:45:35;15.15;;;0.90;;
21444;SDS011;10883;51.946;20.140;2023-06-04T09:48:02;2.50;;;0.60;;
21444;SDS011;10883;51.946;20.140;2023-06-04T09:50:30;1.88;;;0.70;;
21444;SDS011;10883;51.946;20.140;2023-06-04T09:53:17;2.30;;;0.77;;
21444;SDS011;10883;51.946;20.140;2023-06-04T09:55:59;3.33;;;0.63;;
21444;SDS011;10883;51.946;20.140;2023-06-04T09:58:29;1.17;;;0.68;;
21444;SDS011;10883;51.946;20.140;2023-06-04T10:00:57;5.25;;;1.20;;
21444;SDS011;10883;51.946;20.140;2023-06-04T10:03:24;1.15;;;0.70;;
21444;SDS011;10883;51.946;20.140;2023-06-04T10:05:54;2.47;;;0.80;;
21444;SDS011;10883;51.946;20.140;2023-06-04T10:08:23;1.73;;;0.50;;
21444;SDS011;10883;51.946;20.140;2023-06-04T10:10:51;1.50;;;0.65;;
21444;SDS011;10883;51.946;20.140;2023-06-04T10:13:21;0.82;;;0.57;;
21444;SDS011;10883;51.946;20.140;2023-06-04T10:15:49;2.13;;;0.90;;
21444;SDS011;10883;51.946;20.140;2023-06-04T10:18:16;1.70;;;0.50;;
21444;SDS011;10883;51.946;20.140;2023-06-04T10:20:42;2.63;;;0.68;;
21444;SDS011;10883;51.946;20.140;2023-06-04T10:23:08;3.78;;;0.65;;
21444;SDS011;10883;51.946;20.140;2023-06-04T10:25:37;2.55;;;0.70;;
21444;SDS011;10883;51.946;20.140;2023-06-04T10:28:03;2.58;;;0.80;;
21444;SDS011;10883;51.946;20.140;2023-06-04T10:30:30;3.00;;;1.08;;
21444;SDS011;10883;51.946;20.140;2023-06-04T10:32:56;5.35;;;0.80;;
21444;SDS011;10883;51.946;20.140;2023-06-04T10:35:32;0.85;;;0.50;;
21444;SDS011;10883;51.946;20.140;2023-06-04T10:38:09;2.00;;;0.82;;
21444;SDS011;10883;51.946;20.140;2023-06-04T10:40:38;1.77;;;0.90;;
21444;SDS011;10883;51.946;20.140;2023-06-04T10:43:10;2.08;;;0.77;;
21444;SDS011;10883;51.946;20.140;2023-06-04T10:45:44;0.60;;;0.50;;
21444;SDS011;10883;51.946;20.140;2023-06-04T10:48:10;2.22;;;0.60;;
21444;SDS011;10883;51.946;20.140;2023-06-04T10:50:48;1.42;;;0.70;;
21444;SDS011;10883;51.946;20.140;2023-06-04T10:53:18;5.13;;;0.95;;
21444;SDS011;10883;51.946;20.140;2023-06-04T10:55:48;1.83;;;0.85;;
21444;SDS011;10883;51.946;20.140;2023-06-04T10:58:14;2.53;;;0.57;;
21444;SDS011;10883;51.946;20.140;2023-06-04T11:00:41;3.70;;;0.75;;
21444;SDS011;10883;51.946;20.140;2023-06-04T11:03:11;2.08;;;1.05;;
21444;SDS011;10883;51.946;20.140;2023-06-04T11:05:41;0.63;;;0.50;;
21444;SDS011;10883;51.946;20.140;2023-06-04T11:08:08;2.70;;;0.70;;
21444;SDS011;10883;51.946;20.140;2023-06-04T11:10:39;1.55;;;0.90;;
21444;SDS011;10883;51.946;20.140;2023-06-04T11:13:06;1.85;;;0.63;;
21444;SDS011;10883;51.946;20.140;2023-06-04T11:15:45;1.90;;;1.15;;
21444;SDS011;10883;51.946;20.140;2023-06-04T11:18:20;1.45;;;0.50;;
21444;SDS011;10883;51.946;20.140;2023-06-04T11:20:49;1.67;;;0.65;;
21444;SDS011;10883;51.946;20.140;2023-06-04T11:23:23;1.48;;;0.73;;
21444;SDS011;10883;51.946;20.140;2023-06-04T11:25:49;1.70;;;0.80;;
21444;SDS011;10883;51.946;20.140;2023-06-04T11:28:19;1.20;;;0.73;;
21444;SDS011;10883;51.946;20.140;2023-06-04T11:30:57;1.83;;;0.68;;
21444;SDS011;10883;51.946;20.140;2023-06-04T11:33:45;2.10;;;1.05;;
21444;SDS011;10883;51.946;20.140;2023-06-04T11:39:00;3.80;;;0.60;;
21444;SDS011;10883;51.946;20.140;2023-06-04T11:41:31;2.65;;;1.48;;
21444;SDS011;10883;51.946;20.140;2023-06-04T11:44:01;1.00;;;0.90;;
21444;SDS011;10883;51.946;20.140;2023-06-04T11:46:29;8.10;;;2.33;;
21444;SDS011;10883;51.946;20.140;2023-06-04T11:48:57;6.50;;;3.95;;
21444;SDS011;10883;51.946;20.140;2023-06-04T11:51:23;1.40;;;1.15;;
21444;SDS011;10883;51.946;20.140;2023-06-04T11:53:49;2.20;;;0.95;;
21444;SDS011;10883;51.946;20.140;2023-06-04T11:56:15;1.75;;;1.48;;
21444;SDS011;10883;51.946;20.140;2023-06-04T11:58:42;2.28;;;0.98;;
21444;SDS011;10883;51.946;20.140;2023-06-04T12:01:08;1.42;;;0.85;;
21444;SDS011;10883;51.946;20.140;2023-06-04T12:03:38;0.63;;;0.63;;
21444;SDS011;10883;51.946;20.140;2023-06-04T12:06:15;0.80;;;0.57;;
21444;SDS011;10883;51.946;20.140;2023-06-04T12:08:49;2.35;;;0.57;;
21444;SDS011;10883;51.946;20.140;2023-06-04T12:13:52;1.15;;;0.65;;
21444;SDS011;10883;51.946;20.140;2023-06-04T12:16:19;1.65;;;0.50;;
21444;SDS011;10883;51.946;20.140;2023-06-04T12:18:45;3.97;;;2.58;;
21444;SDS011;10883;51.946;20.140;2023-06-04T12:21:44;2.08;;;0.68;;
21444;SDS011;10883;51.946;20.140;2023-06-04T12:24:07;2.92;;;0.70;;
21444;SDS011;10883;51.946;20.140;2023-06-04T12:26:35;0.60;;;0.55;;
21444;SDS011;10883;51.946;20.140;2023-06-04T12:29:09;2.55;;;0.68;;
21444;SDS011;10883;51.946;20.140;2023-06-04T12:31:37;3.10;;;0.65;;
21444;SDS011;10883;51.946;20.140;2023-06-04T12:34:03;0.80;;;0.60;;
21444;SDS011;10883;51.946;20.140;2023-06-04T12:36:29;2.20;;;0.70;;
21444;SDS011;10883;51.946;20.140;2023-06-04T12:38:57;3.30;;;1.00;;
21444;SDS011;10883;51.946;20.140;2023-06-04T12:41:27;1.33;;;0.63;;
21444;SDS011;10883;51.946;20.140;2023-06-04T12:43:53;2.35;;;0.60;;
21444;SDS011;10883;51.946;20.140;2023-06-04T12:46:19;1.13;;;0.70;;
21444;SDS011;10883;51.946;20.140;2023-06-04T12:48:47;6.22;;;1.15;;
21444;SDS011;10883;51.946;20.140;2023-06-04T12:51:13;10.13;;;1.75;;
21444;SDS011;10883;51.946;20.140;2023-06-04T12:53:39;1.85;;;0.65;;
21444;SDS011;10883;51.946;20.140;2023-06-04T12:56:05;2.92;;;1.17;;
21444;SDS011;10883;51.946;20.140;2023-06-04T12:58:31;2.85;;;0.70;;
21444;SDS011;10883;51.946;20.140;2023-06-04T13:00:58;1.30;;;0.60;;
21444;SDS011;10883;51.946;20.140;2023-06-04T13:03:25;1.00;;;0.60;;
21444;SDS011;10883;51.946;20.140;2023-06-04T13:05:51;1.15;;;0.60;;
21444;SDS011;10883;51.946;20.140;2023-06-04T13:08:18;1.17;;;0.60;;
21444;SDS011;10883;51.946;20.140;2023-06-04T13:10:46;0.63;;;0.60;;
21444;SDS011;10883;51.946;20.140;2023-06-04T13:13:13;1.55;;;0.70;;
21444;SDS011;10883;51.946;20.140;2023-06-04T13:15:41;2.25;;;0.80;;
21444;SDS011;10883;51.946;20.140;2023-06-04T13:18:08;1.08;;;0.73;;
21444;SDS011;10883;51.946;20.140;2023-06-04T13:20:35;2.17;;;0.70;;
21444;SDS011;10883;51.946;20.140;2023-06-04T13:23:01;1.38;;;0.80;;
21444;SDS011;10883;51.946;20.140;2023-06-04T13:25:26;0.80;;;0.60;;
21444;SDS011;10883;51.946;20.140;2023-06-04T13:27:53;0.70;;;0.40;;
21444;SDS011;10883;51.946;20.140;2023-06-04T13:30:20;1.25;;;0.60;;
21444;SDS011;10883;51.946;20.140;2023-06-04T13:32:47;6.07;;;0.95;;
21444;SDS011;10883;51.946;20.140;2023-06-04T13:35:13;1.08;;;0.70;;
21444;SDS011;10883;51.946;20.140;2023-06-04T13:37:39;1.75;;;0.73;;
21444;SDS011;10883;51.946;20.140;2023-06-04T13:40:05;2.92;;;1.45;;
21444;SDS011;10883;51.946;20.140;2023-06-04T13:42:31;1.65;;;0.82;;
21444;SDS011;10883;51.946;20.140;2023-06-04T13:44:57;0.80;;;0.70;;
21444;SDS011;10883;51.946;20.140;2023-06-04T13:47:24;0.93;;;0.60;;
21444;SDS011;10883;51.946;20.140;2023-06-04T13:49:50;2.08;;;0.77;;
21444;SDS011;10883;51.946;20.140;2023-06-04T13:52:16;3.08;;;0.65;;
21444;SDS011;10883;51.946;20.140;2023-06-04T13:54:42;2.05;;;0.80;;
21444;SDS011;10883;51.946;20.140;2023-06-04T13:57:08;2.50;;;0.80;;
21444;SDS011;10883;51.946;20.140;2023-06-04T13:59:37;3.40;;;0.77;;
21444;SDS011;10883;51.946;20.140;2023-06-04T14:02:03;2.65;;;1.02;;
21444;SDS011;10883;51.946;20.140;2023-06-04T14:04:29;1.30;;;0.75;;
21444;SDS011;10883;51.946;20.140;2023-06-04T14:06:55;1.48;;;1.08;;
21444;SDS011;10883;51.946;20.140;2023-06-04T14:09:21;1.35;;;0.70;;
21444;SDS011;10883;51.946;20.140;2023-06-04T14:11:47;3.45;;;1.23;;
21444;SDS011;10883;51.946;20.140;2023-06-04T14:14:19;0.57;;;0.55;;
21444;SDS011;10883;51.946;20.140;2023-06-04T14:16:46;1.42;;;0.88;;
21444;SDS011;10883;51.946;20.140;2023-06-04T14:19:12;2.05;;;0.82;;
21444;SDS011;10883;51.946;20.140;2023-06-04T14:21:38;0.85;;;0.60;;
21444;SDS011;10883;51.946;20.140;2023-06-04T14:24:05;3.00;;;0.75;;
21444;SDS011;10883;51.946;20.140;2023-06-04T14:26:31;2.05;;;0.65;;
21444;SDS011;10883;51.946;20.140;2023-06-04T14:28:58;1.77;;;0.60;;
21444;SDS011;10883;51.946;20.140;2023-06-04T14:31:24;2.38;;;0.80;;
21444;SDS011;10883;51.946;20.140;2023-06-04T14:33:50;1.30;;;0.60;;
21444;SDS011;10883;51.946;20.140;2023-06-04T14:36:16;1.08;;;0.85;;
21444;SDS011;10883;51.946;20.140;2023-06-04T14:38:41;0.52;;;0.40;;
21444;SDS011;10883;51.946;20.140;2023-06-04T14:41:08;2.17;;;0.70;;
21444;SDS011;10883;51.946;20.140;2023-06-04T14:43:34;1.63;;;0.85;;
21444;SDS011;10883;51.946;20.140;2023-06-04T14:46:00;0.77;;;0.68;;
21444;SDS011;10883;51.946;20.140;2023-06-04T14:48:26;0.93;;;0.50;;